createdAt,value
2022-12-03T00:02:13.376Z,2.70
2022-12-03T00:04:40.478Z,2.70
2022-12-03T00:07:07.228Z,2.60
2022-12-03T00:09:33.916Z,2.60
2022-12-03T00:12:00.612Z,2.70
2022-12-03T00:14:27.581Z,2.60
2022-12-03T00:16:54.401Z,2.60
2022-12-03T00:19:21.148Z,2.60
2022-12-03T00:21:47.911Z,2.60
2022-12-03T00:24:14.594Z,2.60
2022-12-03T00:26:41.487Z,2.60
2022-12-03T00:29:08.352Z,2.60
2022-12-03T00:31:35.216Z,2.60
2022-12-03T00:34:02.070Z,2.60
2022-12-03T00:36:28.798Z,2.60
2022-12-03T00:38:55.557Z,2.60
2022-12-03T00:41:22.263Z,2.60
2022-12-03T00:43:48.945Z,2.60
2022-12-03T00:46:20.948Z,2.60
2022-12-03T00:48:48.181Z,2.60
2022-12-03T00:51:14.996Z,2.70
2022-12-03T00:53:41.665Z,2.70
2022-12-03T00:56:08.933Z,2.70
2022-12-03T00:58:35.928Z,2.70
2022-12-03T01:01:02.649Z,2.70
2022-12-03T01:03:29.358Z,2.70
2022-12-03T01:05:56.213Z,2.70
2022-12-03T01:08:22.876Z,2.70
2022-12-03T01:10:49.620Z,2.70
2022-12-03T01:13:16.396Z,2.70
2022-12-03T01:15:43.325Z,2.70
2022-12-03T01:18:10.131Z,2.70
2022-12-03T01:20:38.484Z,2.70
2022-12-03T01:23:05.574Z,2.70
2022-12-03T01:25:32.375Z,2.70
2022-12-03T01:27:59.148Z,2.70
2022-12-03T01:30:25.909Z,2.70
2022-12-03T01:32:52.778Z,2.70
2022-12-03T01:35:19.643Z,2.70
2022-12-03T01:37:46.339Z,2.70
2022-12-03T01:40:19.787Z,2.70
2022-12-03T01:42:46.570Z,2.70
2022-12-03T01:45:22.455Z,2.60
2022-12-03T01:47:49.357Z,2.70
2022-12-03T01:50:23.000Z,2.60
2022-12-03T01:52:50.000Z,2.60
2022-12-03T01:55:20.360Z,2.60
2022-12-03T01:57:53.741Z,2.60
2022-12-03T02:00:23.400Z,2.60
2022-12-03T02:02:53.555Z,2.60
2022-12-03T02:05:26.479Z,2.60
2022-12-03T02:07:54.099Z,2.60
2022-12-03T02:10:28.124Z,2.60
2022-12-03T02:13:01.135Z,2.60
2022-12-03T02:15:27.929Z,2.70
2022-12-03T02:17:55.573Z,2.70
2022-12-03T02:20:22.619Z,2.70
2022-12-03T02:23:10.880Z,2.70
2022-12-03T02:25:38.586Z,2.70
2022-12-03T02:28:07.904Z,2.70
2022-12-03T02:30:49.717Z,2.70
2022-12-03T02:33:16.478Z,2.70
2022-12-03T02:35:43.265Z,2.70
2022-12-03T02:38:12.837Z,2.70
2022-12-03T02:40:39.937Z,2.70
2022-12-03T02:43:06.725Z,2.70
2022-12-03T02:45:43.301Z,2.70
2022-12-03T02:48:19.551Z,2.80
2022-12-03T02:50:53.594Z,2.80
2022-12-03T02:53:27.674Z,2.80
2022-12-03T02:55:57.197Z,2.80
2022-12-03T02:58:25.785Z,2.80
2022-12-03T03:00:54.231Z,2.80
2022-12-03T03:03:22.180Z,2.80
2022-12-03T03:05:49.799Z,2.80
2022-12-03T03:08:18.028Z,2.80
2022-12-03T03:10:46.569Z,2.80
2022-12-03T03:13:17.404Z,2.80
2022-12-03T03:15:44.615Z,2.90
2022-12-03T03:18:13.052Z,2.90
2022-12-03T03:20:41.072Z,2.90
2022-12-03T03:23:19.492Z,2.90
2022-12-03T03:25:56.901Z,2.90
2022-12-03T03:28:24.538Z,2.90
2022-12-03T03:30:51.618Z,2.90
2022-12-03T03:33:18.452Z,2.90
2022-12-03T03:35:48.177Z,2.90
2022-12-03T03:38:19.277Z,2.90
2022-12-03T03:40:48.565Z,2.90
2022-12-03T03:43:15.584Z,3.00
2022-12-03T03:45:43.668Z,3.00
2022-12-03T03:48:11.380Z,3.00
2022-12-03T03:50:38.316Z,3.00
2022-12-03T03:53:05.600Z,3.00
2022-12-03T03:55:32.419Z,3.00
2022-12-03T03:57:59.244Z,3.00
2022-12-03T04:00:26.242Z,3.00
2022-12-03T04:02:54.324Z,3.00
2022-12-03T04:05:23.232Z,3.00
2022-12-03T04:07:50.356Z,3.00
2022-12-03T04:10:35.925Z,3.00
2022-12-03T04:13:03.060Z,3.00
2022-12-03T04:15:30.211Z,3.00
2022-12-03T04:18:16.032Z,3.00
2022-12-03T04:20:43.083Z,3.00
2022-12-03T04:23:09.979Z,3.10
2022-12-03T04:25:55.269Z,3.10
2022-12-03T04:28:40.851Z,3.10
2022-12-03T04:31:26.209Z,3.10
2022-12-03T04:34:11.805Z,3.10
2022-12-03T04:36:38.909Z,3.10
2022-12-03T04:39:07.676Z,3.10
2022-12-03T04:41:34.337Z,3.10
2022-12-03T04:44:24.014Z,3.10
2022-12-03T04:46:50.785Z,3.10
2022-12-03T04:49:17.462Z,3.20
2022-12-03T04:51:44.198Z,3.20
2022-12-03T04:54:10.944Z,3.10
2022-12-03T04:56:37.608Z,3.20
2022-12-03T04:59:04.325Z,3.20
2022-12-03T05:01:31.085Z,3.20
2022-12-03T05:03:57.841Z,3.20
2022-12-03T05:06:24.507Z,3.20
2022-12-03T05:08:51.239Z,3.20
2022-12-03T05:11:17.895Z,3.20
2022-12-03T05:13:44.618Z,3.20
2022-12-03T05:16:11.304Z,3.20
2022-12-03T05:18:38.108Z,3.20
2022-12-03T05:21:05.154Z,3.20
2022-12-03T05:23:31.839Z,3.20
2022-12-03T05:25:58.597Z,3.20
2022-12-03T05:28:25.447Z,3.20
2022-12-03T05:30:52.424Z,3.20
2022-12-03T05:33:20.392Z,3.20
2022-12-03T05:35:47.604Z,3.30
2022-12-03T05:38:14.531Z,3.20
2022-12-03T05:40:41.239Z,3.30
2022-12-03T05:43:08.021Z,3.30
2022-12-03T05:45:36.227Z,3.20
2022-12-03T05:48:04.572Z,3.30
2022-12-03T05:50:33.354Z,3.30
2022-12-03T05:53:00.361Z,3.20
2022-12-03T05:55:28.007Z,3.30
2022-12-03T05:57:55.326Z,3.20
2022-12-03T06:00:28.420Z,3.30
2022-12-03T06:02:55.569Z,3.20
2022-12-03T06:05:23.235Z,3.20
2022-12-03T06:07:51.518Z,3.20
2022-12-03T06:10:21.848Z,3.20
2022-12-03T06:12:48.628Z,3.20
2022-12-03T06:15:15.804Z,3.20
2022-12-03T06:17:42.821Z,3.20
2022-12-03T06:20:14.844Z,3.20
2022-12-03T06:22:41.961Z,3.20
2022-12-03T06:25:09.343Z,3.20
2022-12-03T06:27:36.425Z,3.20
2022-12-03T06:30:04.104Z,3.30
2022-12-03T06:32:30.893Z,3.20
2022-12-03T06:34:57.589Z,3.30
2022-12-03T06:37:24.324Z,3.20
2022-12-03T06:39:51.057Z,3.20
2022-12-03T06:42:18.028Z,3.20
2022-12-03T06:44:44.760Z,3.20
2022-12-03T06:47:11.501Z,3.30
2022-12-03T06:49:38.289Z,3.30
2022-12-03T06:52:05.164Z,3.20
2022-12-03T06:54:31.893Z,3.20
2022-12-03T06:56:58.696Z,3.20
2022-12-03T06:59:25.472Z,3.20
2022-12-03T07:01:52.256Z,3.20
2022-12-03T07:04:19.114Z,3.20
2022-12-03T07:06:45.791Z,3.20
2022-12-03T07:09:12.548Z,3.20
2022-12-03T07:11:41.990Z,3.20
2022-12-03T07:14:11.297Z,3.20
2022-12-03T07:16:39.031Z,3.20
2022-12-03T07:19:06.898Z,3.10
2022-12-03T07:21:33.871Z,3.20
2022-12-03T07:24:00.741Z,3.10
2022-12-03T07:26:27.578Z,3.20
2022-12-03T07:28:54.359Z,3.10
2022-12-03T07:31:21.080Z,3.20
2022-12-03T07:33:47.884Z,3.20
2022-12-03T07:36:14.614Z,3.20
2022-12-03T07:38:41.348Z,3.10
2022-12-03T07:41:08.108Z,3.20
2022-12-03T07:43:34.876Z,3.20
2022-12-03T07:46:01.696Z,3.20
2022-12-03T07:48:28.428Z,3.20
2022-12-03T07:50:55.183Z,3.20
2022-12-03T07:53:22.212Z,3.20
2022-12-03T07:55:48.940Z,3.20
2022-12-03T07:58:15.656Z,3.20
2022-12-03T08:00:42.474Z,3.20
2022-12-03T08:03:09.200Z,3.20
2022-12-03T08:05:35.976Z,3.20
2022-12-03T08:08:02.834Z,3.20
2022-12-03T08:10:29.559Z,3.20
2022-12-03T08:12:59.541Z,3.20
2022-12-03T08:15:33.639Z,3.20
2022-12-03T08:18:12.329Z,3.20
2022-12-03T08:20:41.070Z,3.20
2022-12-03T08:23:13.743Z,3.30
2022-12-03T08:25:40.517Z,3.30
2022-12-03T08:28:21.796Z,3.30
2022-12-03T08:31:11.986Z,3.30
2022-12-03T08:33:40.064Z,3.30
2022-12-03T08:36:14.620Z,3.30
2022-12-03T08:38:42.919Z,3.30
2022-12-03T08:41:15.505Z,3.30
2022-12-03T08:43:43.873Z,3.30
2022-12-03T08:46:19.450Z,3.30
2022-12-03T08:48:48.942Z,3.30
2022-12-03T08:51:25.276Z,3.30
2022-12-03T08:54:01.774Z,3.30
2022-12-03T08:56:33.624Z,3.40
2022-12-03T08:59:18.859Z,3.40
2022-12-03T09:01:47.201Z,3.40
2022-12-03T09:04:30.926Z,3.50
2022-12-03T09:06:59.692Z,3.50
2022-12-03T09:09:26.916Z,3.50
2022-12-03T09:11:54.698Z,3.50
2022-12-03T09:14:22.789Z,3.50
2022-12-03T09:16:52.294Z,3.60
2022-12-03T09:19:19.125Z,3.60
2022-12-03T09:21:45.813Z,3.60
2022-12-03T09:24:12.818Z,3.60
2022-12-03T09:26:39.592Z,3.50
2022-12-03T09:29:11.719Z,3.50
2022-12-03T09:31:39.332Z,3.50
2022-12-03T09:34:07.211Z,3.50
2022-12-03T09:36:34.180Z,3.50
2022-12-03T09:39:00.914Z,3.50
2022-12-03T09:41:28.612Z,3.50
2022-12-03T09:44:05.304Z,3.50
2022-12-03T09:46:35.101Z,3.50
2022-12-03T09:49:03.095Z,3.50
2022-12-03T09:51:33.782Z,3.50
2022-12-03T09:54:02.957Z,3.50
2022-12-03T09:56:29.921Z,3.50
2022-12-03T09:58:56.705Z,3.50
2022-12-03T10:01:26.753Z,3.50
2022-12-03T10:03:56.084Z,3.40
2022-12-03T10:06:24.194Z,3.40
2022-12-03T10:08:54.577Z,3.40
2022-12-03T10:11:24.411Z,3.40
2022-12-03T10:13:51.804Z,3.40
2022-12-03T10:16:20.861Z,3.30
2022-12-03T10:18:54.354Z,3.30
2022-12-03T10:21:24.331Z,3.30
2022-12-03T10:24:16.924Z,3.30
2022-12-03T10:26:45.048Z,3.30
2022-12-03T10:29:34.269Z,3.30
2022-12-03T10:32:08.804Z,3.30
2022-12-03T10:34:41.515Z,3.30
2022-12-03T10:37:16.139Z,3.30
2022-12-03T10:40:08.186Z,3.30
2022-12-03T10:42:38.662Z,3.40
2022-12-03T10:45:16.186Z,3.40
2022-12-03T10:47:44.518Z,3.40
2022-12-03T10:50:19.568Z,3.40
2022-12-03T10:52:46.858Z,3.40
2022-12-03T10:55:14.893Z,3.40
2022-12-03T10:57:45.632Z,3.40
2022-12-03T11:00:20.555Z,3.40
2022-12-03T11:02:54.925Z,3.50
2022-12-03T11:05:26.932Z,3.50
2022-12-03T11:07:54.130Z,3.60
2022-12-03T11:10:21.423Z,3.60
2022-12-03T11:13:25.865Z,3.60
2022-12-03T11:15:53.319Z,3.60
2022-12-03T11:18:38.563Z,3.60
2022-12-03T11:21:07.088Z,3.60
2022-12-03T11:23:48.579Z,3.60
2022-12-03T11:26:18.906Z,3.60
2022-12-03T11:28:46.076Z,3.50
2022-12-03T11:31:39.322Z,3.50
2022-12-03T11:34:18.348Z,3.50
2022-12-03T11:37:10.122Z,3.50
2022-12-03T11:39:52.218Z,3.40
2022-12-03T11:42:28.406Z,3.40
2022-12-03T11:45:04.188Z,3.40
2022-12-03T11:47:38.199Z,3.40
2022-12-03T11:50:39.041Z,3.30
2022-12-03T11:53:17.181Z,3.30
2022-12-03T11:55:48.657Z,3.30
2022-12-03T11:58:20.051Z,3.20
2022-12-03T12:00:55.816Z,3.10
2022-12-03T12:03:33.083Z,3.10
2022-12-03T12:06:18.248Z,3.10
2022-12-03T12:08:51.201Z,3.00
2022-12-03T12:11:26.068Z,3.00
2022-12-03T12:14:00.412Z,3.00
2022-12-03T12:16:36.272Z,3.00
2022-12-03T12:19:32.400Z,3.00
2022-12-03T12:22:38.352Z,2.90
2022-12-03T12:25:29.896Z,2.90
2022-12-03T12:27:57.563Z,2.90
2022-12-03T12:30:24.339Z,2.90
2022-12-03T12:33:08.192Z,3.00
2022-12-03T12:35:36.723Z,3.00
2022-12-03T12:38:06.619Z,3.00
2022-12-03T12:40:36.777Z,3.10
2022-12-03T12:43:24.274Z,3.10
2022-12-03T12:45:54.845Z,3.00
2022-12-03T12:48:31.359Z,3.10
2022-12-03T12:51:11.495Z,3.00
2022-12-03T12:53:39.983Z,3.10
2022-12-03T12:56:21.625Z,3.10
2022-12-03T12:58:48.370Z,3.10
2022-12-03T13:01:30.292Z,3.10
2022-12-03T13:03:57.454Z,3.10
2022-12-03T13:06:28.190Z,3.10
2022-12-03T13:08:55.446Z,3.10
2022-12-03T13:11:25.200Z,3.00
2022-12-03T13:13:52.508Z,3.00
2022-12-03T13:16:21.387Z,3.00
2022-12-03T13:18:56.968Z,3.00
2022-12-03T13:21:44.603Z,3.00
2022-12-03T13:24:29.710Z,3.00
2022-12-03T13:26:56.973Z,3.00
2022-12-03T13:29:25.864Z,3.00
2022-12-03T13:31:58.470Z,3.00
2022-12-03T13:34:28.249Z,2.90
2022-12-03T13:36:58.595Z,2.90
2022-12-03T13:39:35.190Z,2.90
2022-12-03T13:42:41.537Z,2.80
2022-12-03T13:45:14.723Z,2.90
2022-12-03T13:47:58.809Z,2.80
2022-12-03T13:50:39.545Z,2.90
2022-12-03T13:53:26.798Z,2.90
2022-12-03T13:56:15.298Z,2.80
2022-12-03T13:58:42.012Z,2.80
2022-12-03T14:01:08.772Z,2.80
2022-12-03T14:03:35.815Z,2.70
2022-12-03T14:06:02.525Z,2.70
2022-12-03T14:08:29.201Z,2.70
2022-12-03T14:11:00.576Z,2.70
2022-12-03T14:13:27.881Z,2.60
2022-12-03T14:15:54.616Z,2.60
2022-12-03T14:18:21.512Z,2.50
2022-12-03T14:20:48.328Z,2.50
2022-12-03T14:23:15.586Z,2.50
2022-12-03T14:25:43.979Z,2.50
2022-12-03T14:28:11.051Z,2.50
2022-12-03T14:30:38.040Z,2.50
2022-12-03T14:33:04.784Z,2.50
2022-12-03T14:35:31.518Z,2.40
2022-12-03T14:37:58.183Z,2.40
2022-12-03T14:40:25.033Z,2.30
2022-12-03T14:42:52.025Z,2.30
2022-12-03T14:45:20.292Z,2.20
2022-12-03T14:47:46.956Z,2.20
2022-12-03T14:50:14.481Z,2.20
2022-12-03T14:52:41.854Z,2.20
2022-12-03T14:55:09.021Z,2.20
2022-12-03T14:57:35.793Z,2.20
2022-12-03T15:00:02.537Z,2.10
2022-12-03T15:02:30.281Z,2.10
2022-12-03T15:04:57.184Z,2.10
2022-12-03T15:07:23.869Z,2.10
2022-12-03T15:09:50.524Z,2.10
2022-12-03T15:12:17.403Z,2.00
2022-12-03T15:14:44.176Z,2.00
2022-12-03T15:17:10.908Z,2.00
2022-12-03T15:19:37.834Z,2.00
2022-12-03T15:22:04.582Z,1.90
2022-12-03T15:24:31.399Z,1.90
2022-12-03T15:26:58.175Z,1.90
2022-12-03T15:29:24.978Z,1.90
2022-12-03T15:31:51.793Z,1.90
2022-12-03T15:34:22.389Z,1.90
2022-12-03T15:36:49.752Z,1.90
2022-12-03T15:39:16.432Z,1.90
2022-12-03T15:41:43.153Z,1.90
2022-12-03T15:44:09.923Z,1.90
2022-12-03T15:46:36.707Z,1.80
2022-12-03T15:49:03.487Z,1.80
2022-12-03T15:51:30.305Z,1.80
2022-12-03T15:53:57.113Z,1.80
2022-12-03T15:56:24.086Z,1.80
2022-12-03T15:58:51.734Z,1.80
2022-12-03T16:01:18.661Z,1.80
2022-12-03T16:03:45.457Z,1.80
2022-12-03T16:06:12.776Z,1.80
2022-12-03T16:08:39.614Z,1.80
2022-12-03T16:11:06.426Z,1.80
2022-12-03T16:13:33.373Z,1.80
2022-12-03T16:16:00.230Z,1.80
2022-12-03T16:18:27.147Z,1.80
2022-12-03T16:20:53.859Z,1.80
2022-12-03T16:23:20.740Z,1.80
2022-12-03T16:25:47.530Z,1.80
2022-12-03T16:28:14.231Z,1.80
2022-12-03T16:30:41.314Z,1.70
2022-12-03T16:33:08.408Z,1.70
2022-12-03T16:35:35.163Z,1.70
2022-12-03T16:38:01.940Z,1.70
2022-12-03T16:40:28.897Z,1.70
2022-12-03T16:42:55.696Z,1.70
2022-12-03T16:45:33.287Z,1.70
2022-12-03T16:48:01.170Z,1.70
2022-12-03T16:50:30.297Z,1.70
2022-12-03T16:52:58.009Z,1.70
2022-12-03T16:55:25.067Z,1.80
2022-12-03T16:57:51.766Z,1.70
2022-12-03T17:00:21.623Z,1.70
2022-12-03T17:02:48.679Z,1.70
2022-12-03T17:05:15.489Z,1.70
2022-12-03T17:07:42.279Z,1.70
2022-12-03T17:10:09.492Z,1.70
2022-12-03T17:13:01.216Z,1.70
2022-12-03T17:15:22.916Z,1.70
2022-12-03T17:17:49.660Z,1.70
2022-12-03T17:20:17.959Z,1.70
2022-12-03T17:22:44.709Z,1.70
2022-12-03T17:25:12.047Z,1.70
2022-12-03T17:27:44.832Z,1.70
2022-12-03T17:30:13.022Z,1.60
2022-12-03T17:32:40.049Z,1.60
2022-12-03T17:35:07.571Z,1.60
2022-12-03T17:37:34.487Z,1.60
2022-12-03T17:40:01.491Z,1.60
2022-12-03T17:42:28.232Z,1.60
2022-12-03T17:44:54.913Z,1.60
2022-12-03T17:47:21.655Z,1.60
2022-12-03T17:49:48.396Z,1.60
2022-12-03T17:52:15.087Z,1.60
2022-12-03T17:55:08.321Z,1.60
2022-12-03T17:57:28.464Z,1.60
2022-12-03T17:59:55.417Z,1.60
2022-12-03T18:02:22.498Z,1.60
2022-12-03T18:04:49.276Z,1.60
2022-12-03T18:07:16.043Z,1.60
2022-12-03T18:09:42.740Z,1.60
2022-12-03T18:12:09.542Z,1.60
2022-12-03T18:14:36.286Z,1.60
2022-12-03T18:17:03.027Z,1.60
2022-12-03T18:19:29.733Z,1.60
2022-12-03T18:21:56.467Z,1.60
2022-12-03T18:24:23.394Z,1.60
2022-12-03T18:26:50.414Z,1.60
2022-12-03T18:29:17.173Z,1.60
2022-12-03T18:31:43.938Z,1.60
2022-12-03T18:34:10.654Z,1.60
2022-12-03T18:36:37.527Z,1.60
2022-12-03T18:39:06.106Z,1.60
2022-12-03T18:41:33.539Z,1.60
2022-12-03T18:44:04.348Z,1.60
2022-12-03T18:46:52.580Z,1.60
2022-12-03T18:49:17.831Z,1.60
2022-12-03T18:51:44.629Z,1.60
2022-12-03T18:54:13.432Z,1.50
2022-12-03T18:56:41.412Z,1.50
2022-12-03T18:59:08.801Z,1.60
2022-12-03T19:01:36.083Z,1.60
2022-12-03T19:04:03.030Z,1.60
2022-12-03T19:06:30.486Z,1.60
2022-12-03T19:08:57.621Z,1.60
2022-12-03T19:11:24.430Z,1.60
2022-12-03T19:13:51.844Z,1.60
2022-12-03T19:16:19.009Z,1.60
2022-12-03T19:18:45.996Z,1.60
2022-12-03T19:21:15.456Z,1.60
2022-12-03T19:23:54.442Z,1.60
2022-12-03T19:26:29.516Z,1.60
2022-12-03T19:28:56.243Z,1.60
2022-12-03T19:31:23.044Z,1.60
2022-12-03T19:33:50.731Z,1.60
2022-12-03T19:36:31.379Z,1.50
2022-12-03T19:38:59.518Z,1.50
2022-12-03T19:41:30.476Z,1.50
2022-12-03T19:43:58.096Z,1.50
2022-12-03T19:46:28.644Z,1.50
2022-12-03T19:48:55.693Z,1.50
2022-12-03T19:51:37.493Z,1.50
2022-12-03T19:54:06.779Z,1.40
2022-12-03T19:56:34.443Z,1.50
2022-12-03T19:59:01.752Z,1.40
2022-12-03T20:01:31.119Z,1.50
2022-12-03T20:03:59.874Z,1.50
2022-12-03T20:06:32.545Z,1.50
2022-12-03T20:09:05.415Z,1.40
2022-12-03T20:11:33.825Z,1.50
2022-12-03T20:14:03.372Z,1.50
2022-12-03T20:16:30.324Z,1.50
2022-12-03T20:19:00.001Z,1.50
2022-12-03T20:21:28.592Z,1.50
2022-12-03T20:23:55.385Z,1.40
2022-12-03T20:26:22.842Z,1.40
2022-12-03T20:28:50.114Z,1.40
2022-12-03T20:31:20.015Z,1.40
2022-12-03T20:33:49.683Z,1.40
2022-12-03T20:36:18.277Z,1.40
2022-12-03T20:38:45.435Z,1.40
2022-12-03T20:41:18.565Z,1.40
2022-12-03T20:43:45.796Z,1.40
2022-12-03T20:46:14.292Z,1.40
2022-12-03T20:48:43.447Z,1.40
2022-12-03T20:51:13.464Z,1.40
2022-12-03T20:53:40.920Z,1.40
2022-12-03T20:56:08.259Z,1.40
2022-12-03T20:58:35.351Z,1.40
2022-12-03T21:01:15.899Z,1.40
2022-12-03T21:03:43.692Z,1.40
2022-12-03T21:06:11.404Z,1.40
2022-12-03T21:08:42.758Z,1.30
2022-12-03T21:11:14.753Z,1.30
2022-12-03T21:13:43.374Z,1.30
2022-12-03T21:16:13.002Z,1.30
2022-12-03T21:18:40.335Z,1.30
2022-12-03T21:21:07.408Z,1.30
2022-12-03T21:23:35.286Z,1.30
2022-12-03T21:26:10.940Z,1.30
2022-12-03T21:28:39.733Z,1.30
2022-12-03T21:31:09.573Z,1.30
2022-12-03T21:33:36.869Z,1.20
2022-12-03T21:36:04.824Z,1.20
2022-12-03T21:38:32.728Z,1.20
2022-12-03T21:41:01.130Z,1.20
2022-12-03T21:43:28.332Z,1.20
2022-12-03T21:45:55.378Z,1.20
2022-12-03T21:48:22.568Z,1.20
2022-12-03T21:51:21.698Z,1.20
2022-12-03T21:53:48.485Z,1.20
2022-12-03T21:56:18.412Z,1.20
2022-12-03T21:58:45.643Z,1.30
2022-12-03T22:01:19.345Z,1.20
2022-12-03T22:03:46.317Z,1.20
2022-12-03T22:06:13.433Z,1.20
2022-12-03T22:08:40.645Z,1.20
2022-12-03T22:11:10.608Z,1.20
2022-12-03T22:13:38.976Z,1.20
2022-12-03T22:16:11.319Z,1.20
2022-12-03T22:18:38.605Z,1.20
2022-12-03T22:21:07.252Z,1.20
2022-12-03T22:23:34.565Z,1.20
2022-12-03T22:26:04.927Z,1.20
2022-12-03T22:28:32.266Z,1.20
2022-12-03T22:30:59.043Z,1.20
2022-12-03T22:33:25.980Z,1.20
2022-12-03T22:36:02.396Z,1.20
2022-12-03T22:38:30.009Z,1.20
2022-12-03T22:40:57.171Z,1.20
2022-12-03T22:43:24.080Z,1.20
2022-12-03T22:45:55.220Z,1.20
2022-12-03T22:48:23.349Z,1.20
2022-12-03T22:50:51.399Z,1.20
2022-12-03T22:53:18.740Z,1.30
2022-12-03T22:55:53.588Z,1.20
2022-12-03T22:58:20.282Z,1.30
2022-12-03T23:00:47.013Z,1.20
2022-12-03T23:03:13.796Z,1.30
2022-12-03T23:05:40.660Z,1.20
2022-12-03T23:08:12.399Z,1.20
2022-12-03T23:10:41.713Z,1.20
2022-12-03T23:13:09.660Z,1.20
2022-12-03T23:15:36.678Z,1.20
2022-12-03T23:18:03.757Z,1.20
2022-12-03T23:20:30.423Z,1.20
2022-12-03T23:22:57.076Z,1.20
2022-12-03T23:25:23.804Z,1.20
2022-12-03T23:27:50.541Z,1.20
2022-12-03T23:30:17.431Z,1.20
2022-12-03T23:32:44.417Z,1.20
2022-12-03T23:35:12.584Z,1.20
2022-12-03T23:37:42.512Z,1.20
2022-12-03T23:40:09.800Z,1.20
2022-12-03T23:42:36.466Z,1.20
2022-12-03T23:45:03.593Z,1.20
2022-12-03T23:47:30.365Z,1.20
2022-12-03T23:49:57.348Z,1.20
2022-12-03T23:52:24.573Z,1.20
2022-12-03T23:54:51.321Z,1.20
2022-12-03T23:57:18.435Z,1.20
2022-12-03T23:59:45.192Z,1.20
